createdAt,value
2023-02-18T00:00:37.403Z,6.56
2023-02-18T00:03:04.756Z,6.60
2023-02-18T00:05:33.220Z,6.56
2023-02-18T00:08:00.634Z,6.55
2023-02-18T00:10:27.922Z,6.54
2023-02-18T00:12:55.273Z,6.46
2023-02-18T00:15:22.562Z,6.40
2023-02-18T00:17:49.888Z,6.34
2023-02-18T00:20:17.305Z,6.45
2023-02-18T00:22:44.645Z,6.51
2023-02-18T00:25:13.968Z,6.54
2023-02-18T00:27:41.326Z,6.51
2023-02-18T00:30:09.203Z,6.40
2023-02-18T00:32:36.621Z,6.47
2023-02-18T00:35:04.495Z,6.38
2023-02-18T00:37:33.877Z,6.34
2023-02-18T00:40:03.006Z,6.36
2023-02-18T00:42:31.037Z,6.29
2023-02-18T00:44:58.313Z,6.23
2023-02-18T00:47:25.854Z,6.19
2023-02-18T00:49:53.193Z,6.25
2023-02-18T00:52:20.561Z,6.25
2023-02-18T00:54:47.985Z,6.23
2023-02-18T00:57:18.299Z,6.27
2023-02-18T00:59:45.740Z,6.21
2023-02-18T01:02:13.212Z,6.24
2023-02-18T01:04:40.685Z,6.09
2023-02-18T01:07:10.391Z,6.10
2023-02-18T01:09:37.789Z,6.11
2023-02-18T01:12:05.505Z,6.07
2023-02-18T01:14:33.230Z,6.12
2023-02-18T01:17:00.579Z,6.01
2023-02-18T01:19:27.861Z,5.97
2023-02-18T01:21:55.284Z,5.94
2023-02-18T01:24:22.602Z,5.88
2023-02-18T01:26:50.053Z,5.76
2023-02-18T01:29:17.376Z,5.64
2023-02-18T01:31:44.852Z,5.60
2023-02-18T01:34:15.194Z,5.63
2023-02-18T01:36:42.521Z,5.39
2023-02-18T01:39:09.815Z,5.33
2023-02-18T01:41:37.167Z,5.34
2023-02-18T01:44:17.565Z,5.33
2023-02-18T01:46:46.935Z,5.28
2023-02-18T01:49:23.508Z,5.27
2023-02-18T01:51:57.778Z,5.28
2023-02-18T01:54:32.164Z,5.36
2023-02-18T01:57:06.096Z,5.43
2023-02-18T01:59:38.792Z,5.37
2023-02-18T02:02:10.946Z,5.44
2023-02-18T02:04:40.692Z,5.48
2023-02-18T02:07:10.264Z,5.46
2023-02-18T02:09:39.731Z,5.33
2023-02-18T02:12:35.052Z,5.17
2023-02-18T02:15:08.440Z,5.19
2023-02-18T02:18:13.034Z,5.20
2023-02-18T02:21:20.657Z,5.31
2023-02-18T02:24:06.260Z,5.30
2023-02-18T02:27:07.066Z,5.28
2023-02-18T02:30:01.677Z,5.20
2023-02-18T02:32:34.715Z,5.11
2023-02-18T02:35:13.954Z,5.20
2023-02-18T02:37:52.905Z,5.14
2023-02-18T02:40:43.921Z,5.07
2023-02-18T02:43:20.436Z,5.11
2023-02-18T02:46:12.212Z,5.05
2023-02-18T02:48:46.724Z,5.00
2023-02-18T02:51:36.179Z,5.08
2023-02-18T02:54:24.936Z,4.92
2023-02-18T02:57:29.008Z,4.96
2023-02-18T03:00:10.382Z,4.77
2023-02-18T03:02:56.691Z,4.72
2023-02-18T03:05:36.192Z,4.78
2023-02-18T03:08:46.156Z,4.87
2023-02-18T03:11:16.023Z,4.95
2023-02-18T03:14:02.160Z,4.89
2023-02-18T03:16:51.028Z,4.84
2023-02-18T03:19:32.793Z,4.89
2023-02-18T03:22:27.096Z,4.88
2023-02-18T03:24:57.922Z,4.74
2023-02-18T03:27:29.288Z,4.57
2023-02-18T03:30:07.584Z,4.32
2023-02-18T03:32:36.810Z,4.32
2023-02-18T03:35:17.020Z,4.30
2023-02-18T03:38:01.102Z,4.20
2023-02-18T03:40:33.475Z,4.25
2023-02-18T03:43:02.088Z,4.25
2023-02-18T03:45:29.516Z,4.14
2023-02-18T03:47:57.304Z,4.51
2023-02-18T03:50:25.080Z,4.43
2023-02-18T03:52:52.514Z,4.11
2023-02-18T03:55:21.164Z,4.07
2023-02-18T03:57:48.521Z,4.01
2023-02-18T04:00:16.035Z,4.07
2023-02-18T04:02:43.361Z,4.05
2023-02-18T04:05:11.138Z,4.13
2023-02-18T04:07:38.776Z,4.25
2023-02-18T04:10:07.121Z,4.03
2023-02-18T04:12:34.507Z,4.22
2023-02-18T04:15:01.983Z,4.06
2023-02-18T04:17:29.344Z,4.06
2023-02-18T04:19:56.649Z,4.00
2023-02-18T04:22:23.933Z,4.03
2023-02-18T04:24:51.313Z,3.96
2023-02-18T04:27:18.668Z,3.97
2023-02-18T04:29:46.142Z,4.07
2023-02-18T04:32:13.508Z,3.84
2023-02-18T04:34:40.902Z,3.86
2023-02-18T04:37:08.259Z,3.90
2023-02-18T04:39:35.661Z,3.90
2023-02-18T04:42:08.734Z,3.96
2023-02-18T04:44:37.604Z,3.90
2023-02-18T04:47:08.263Z,3.77
2023-02-18T04:49:35.831Z,3.71
2023-02-18T04:52:03.628Z,3.78
2023-02-18T04:54:30.974Z,3.59
2023-02-18T04:56:58.345Z,3.81
2023-02-18T04:59:28.055Z,3.58
2023-02-18T05:01:55.614Z,3.63
2023-02-18T05:04:23.178Z,3.69
2023-02-18T05:06:50.572Z,3.60
2023-02-18T05:09:17.954Z,3.57
2023-02-18T05:11:45.892Z,3.55
2023-02-18T05:14:15.350Z,3.60
2023-02-18T05:16:42.617Z,3.67
2023-02-18T05:19:14.119Z,3.68
2023-02-18T05:21:41.605Z,3.56
2023-02-18T05:24:09.923Z,3.54
2023-02-18T05:26:37.392Z,3.61
2023-02-18T05:29:05.203Z,3.66
2023-02-18T05:31:33.405Z,3.53
2023-02-18T05:34:00.882Z,3.50
2023-02-18T05:36:28.204Z,3.66
2023-02-18T05:38:55.597Z,3.66
2023-02-18T05:41:22.890Z,3.74
2023-02-18T05:44:09.115Z,3.79
2023-02-18T05:46:36.467Z,3.73
2023-02-18T05:49:03.844Z,3.70
2023-02-18T05:51:31.181Z,3.69
2023-02-18T05:53:58.677Z,3.69
2023-02-18T05:56:26.082Z,3.66
2023-02-18T05:58:53.436Z,3.50
2023-02-18T06:01:20.807Z,3.42
2023-02-18T06:03:48.196Z,3.31
2023-02-18T06:06:15.613Z,3.34
2023-02-18T06:08:45.122Z,3.35
2023-02-18T06:11:12.424Z,3.36
2023-02-18T06:13:39.822Z,3.46
2023-02-18T06:16:07.507Z,3.43
2023-02-18T06:18:35.154Z,3.34
2023-02-18T06:21:02.422Z,3.35
2023-02-18T06:23:29.817Z,3.33
2023-02-18T06:25:57.387Z,3.18
2023-02-18T06:28:24.774Z,3.40
2023-02-18T06:30:52.158Z,3.42
2023-02-18T06:33:19.495Z,3.52
2023-02-18T06:35:55.488Z,3.56
2023-02-18T06:38:22.899Z,3.62
2023-02-18T06:40:50.560Z,3.61
2023-02-18T06:43:18.899Z,3.70
2023-02-18T06:45:46.493Z,3.76
2023-02-18T06:48:14.816Z,3.86
2023-02-18T06:50:43.146Z,3.93
2023-02-18T06:53:11.285Z,3.75
2023-02-18T06:55:39.126Z,3.84
2023-02-18T06:58:06.367Z,3.86
2023-02-18T07:00:33.804Z,3.90
2023-02-18T07:03:01.155Z,4.02
2023-02-18T07:05:28.811Z,4.04
2023-02-18T07:07:56.180Z,4.19
2023-02-18T07:10:23.747Z,4.20
2023-02-18T07:12:51.109Z,4.28
2023-02-18T07:15:21.510Z,4.28
2023-02-18T07:17:48.802Z,4.34
2023-02-18T07:20:16.242Z,4.36
2023-02-18T07:22:43.499Z,4.46
2023-02-18T07:25:10.850Z,4.47
2023-02-18T07:27:38.202Z,4.35
2023-02-18T07:30:06.415Z,4.40
2023-02-18T07:32:34.129Z,4.36
2023-02-18T07:35:01.491Z,4.43
2023-02-18T07:37:28.874Z,4.39
2023-02-18T07:39:56.963Z,4.38
2023-02-18T07:42:24.427Z,4.28
2023-02-18T07:44:51.759Z,4.41
2023-02-18T07:47:19.785Z,4.42
2023-02-18T07:49:47.707Z,4.36
2023-02-18T07:52:16.141Z,4.17
2023-02-18T07:54:43.592Z,4.19
2023-02-18T07:57:10.898Z,4.32
2023-02-18T07:59:38.471Z,4.31
2023-02-18T08:02:07.674Z,4.52
2023-02-18T08:04:35.065Z,4.65
2023-02-18T08:07:02.461Z,4.68
2023-02-18T08:09:29.825Z,4.62
2023-02-18T08:11:57.919Z,4.57
2023-02-18T08:14:25.357Z,4.75
2023-02-18T08:16:53.382Z,4.80
2023-02-18T08:19:20.804Z,4.69
2023-02-18T08:21:48.163Z,4.78
2023-02-18T08:24:15.549Z,4.91
2023-02-18T08:26:59.164Z,4.74
2023-02-18T08:29:27.540Z,4.78
2023-02-18T08:31:57.237Z,4.82
2023-02-18T08:34:24.712Z,4.92
2023-02-18T08:36:52.085Z,4.78
2023-02-18T08:39:19.471Z,4.93
2023-02-18T08:41:46.802Z,4.85
2023-02-18T08:44:14.327Z,4.91
2023-02-18T08:46:41.834Z,4.92
2023-02-18T08:49:09.748Z,4.92
2023-02-18T08:51:37.123Z,5.12
2023-02-18T08:54:07.398Z,5.07
2023-02-18T08:56:34.741Z,5.31
2023-02-18T08:59:02.091Z,4.90
2023-02-18T09:01:29.469Z,5.13
2023-02-18T09:03:56.946Z,4.91
2023-02-18T09:06:24.384Z,5.10
2023-02-18T09:08:51.888Z,5.07
2023-02-18T09:11:20.254Z,5.20
2023-02-18T09:13:47.901Z,5.19
2023-02-18T09:16:24.446Z,5.33
2023-02-18T09:18:53.319Z,5.32
2023-02-18T09:21:20.873Z,5.51
2023-02-18T09:23:48.228Z,5.61
2023-02-18T09:26:18.020Z,5.65
2023-02-18T09:28:45.408Z,5.59
2023-02-18T09:31:20.851Z,5.60
2023-02-18T09:33:51.273Z,5.65
2023-02-18T09:36:20.479Z,5.61
2023-02-18T09:38:48.243Z,5.64
2023-02-18T09:41:28.104Z,5.59
2023-02-18T09:44:18.446Z,5.67
2023-02-18T09:47:01.260Z,5.83
2023-02-18T09:49:33.702Z,5.53
2023-02-18T09:52:11.462Z,5.72
2023-02-18T09:54:38.960Z,5.92
2023-02-18T09:57:15.802Z,6.07
2023-02-18T09:59:45.070Z,6.15
2023-02-18T10:02:17.491Z,6.03
2023-02-18T10:04:52.187Z,6.12
2023-02-18T10:07:32.240Z,5.97
2023-02-18T10:10:16.681Z,6.14
2023-02-18T10:12:44.613Z,6.28
2023-02-18T10:15:27.228Z,6.38
2023-02-18T10:17:56.916Z,6.44
2023-02-18T10:20:29.070Z,6.48
2023-02-18T10:23:01.321Z,6.47
2023-02-18T10:25:29.686Z,6.67
2023-02-18T10:27:59.846Z,6.63
2023-02-18T10:30:48.932Z,6.72
2023-02-18T10:33:45.122Z,6.56
2023-02-18T10:36:47.956Z,6.88
2023-02-18T10:39:32.789Z,6.72
2023-02-18T10:42:15.054Z,6.70
2023-02-18T10:45:10.500Z,6.76
2023-02-18T10:47:46.624Z,6.96
2023-02-18T10:50:49.744Z,6.82
2023-02-18T10:53:34.586Z,6.95
2023-02-18T10:56:02.467Z,6.99
2023-02-18T10:58:29.783Z,7.00
2023-02-18T11:00:57.815Z,6.92
2023-02-18T11:03:38.488Z,7.01
2023-02-18T11:06:25.080Z,7.12
2023-02-18T11:08:54.889Z,7.09
2023-02-18T11:11:40.456Z,7.26
2023-02-18T11:14:13.555Z,7.26
2023-02-18T11:16:46.488Z,7.29
2023-02-18T11:19:37.047Z,7.26
2023-02-18T11:22:33.144Z,7.25
2023-02-18T11:25:03.134Z,7.27
2023-02-18T11:27:44.044Z,7.21
2023-02-18T11:30:17.612Z,7.32
2023-02-18T11:32:47.992Z,7.44
2023-02-18T11:35:21.470Z,7.80
2023-02-18T11:37:49.631Z,7.97
2023-02-18T11:40:28.505Z,7.89
2023-02-18T11:43:10.339Z,8.12
2023-02-18T11:45:37.765Z,8.16
2023-02-18T11:48:16.254Z,8.48
2023-02-18T11:50:44.624Z,8.70
2023-02-18T11:53:30.860Z,8.41
2023-02-18T11:56:01.688Z,8.09
2023-02-18T11:58:38.341Z,8.11
2023-02-18T12:01:12.289Z,8.26
2023-02-18T12:03:50.865Z,8.39
2023-02-18T12:06:28.119Z,8.39
2023-02-18T12:09:04.092Z,8.48
2023-02-18T12:11:42.766Z,8.71
2023-02-18T12:14:17.679Z,8.96
2023-02-18T12:17:22.470Z,9.18
2023-02-18T12:20:14.304Z,9.13
2023-02-18T12:22:45.005Z,9.12
2023-02-18T12:25:24.378Z,9.15
2023-02-18T12:28:23.840Z,9.13
2023-02-18T12:31:09.586Z,9.11
2023-02-18T12:33:57.645Z,9.57
2023-02-18T12:36:48.253Z,9.36
2023-02-18T12:39:32.088Z,9.53
2023-02-18T12:42:49.096Z,9.57
2023-02-18T12:45:54.012Z,9.76
2023-02-18T12:48:35.397Z,10.18
2023-02-18T12:51:08.734Z,10.27
2023-02-18T12:53:50.206Z,10.08
2023-02-18T12:56:33.947Z,10.10
2023-02-18T12:59:31.789Z,10.31
2023-02-18T13:02:21.851Z,10.46
2023-02-18T13:05:26.479Z,10.58
2023-02-18T13:08:07.205Z,10.35
2023-02-18T13:10:49.403Z,10.80
2023-02-18T13:13:18.379Z,10.91
2023-02-18T13:15:55.345Z,10.95
2023-02-18T13:18:36.530Z,11.15
2023-02-18T13:21:07.583Z,11.24
2023-02-18T13:23:48.144Z,11.04
2023-02-18T13:26:17.906Z,11.26
2023-02-18T13:29:25.995Z,11.10
2023-02-18T13:32:12.027Z,11.05
2023-02-18T13:35:09.493Z,11.08
2023-02-18T13:38:14.400Z,11.13
2023-02-18T13:40:42.591Z,11.36
2023-02-18T13:43:23.713Z,11.61
2023-02-18T13:46:19.398Z,11.43
2023-02-18T13:48:52.909Z,11.39
2023-02-18T13:51:44.197Z,11.20
2023-02-18T13:54:18.423Z,11.41
2023-02-18T13:57:05.640Z,11.50
2023-02-18T13:59:32.946Z,11.06
2023-02-18T14:02:25.301Z,11.41
2023-02-18T14:04:54.561Z,11.22
2023-02-18T14:07:35.882Z,11.17
2023-02-18T14:10:06.435Z,11.19
2023-02-18T14:12:35.657Z,11.34
2023-02-18T14:15:27.486Z,11.34
2023-02-18T14:18:12.852Z,11.13
2023-02-18T14:20:40.227Z,11.25
2023-02-18T14:23:22.817Z,11.45
2023-02-18T14:26:04.963Z,11.47
2023-02-18T14:28:35.076Z,11.10
2023-02-18T14:31:43.061Z,11.08
2023-02-18T14:34:47.276Z,11.36
2023-02-18T14:37:33.627Z,11.18
2023-02-18T14:40:06.961Z,11.45
2023-02-18T14:43:06.474Z,11.32
2023-02-18T14:45:57.993Z,11.44
2023-02-18T14:48:25.312Z,11.21
2023-02-18T14:50:53.773Z,11.26
2023-02-18T14:53:24.954Z,11.34
2023-02-18T14:55:58.418Z,11.15
2023-02-18T14:58:31.607Z,11.02
2023-02-18T15:01:15.106Z,10.91
2023-02-18T15:03:42.409Z,10.88
2023-02-18T15:06:31.581Z,10.95
2023-02-18T15:09:00.765Z,11.04
2023-02-18T15:11:37.664Z,10.94
2023-02-18T15:14:30.553Z,10.91
2023-02-18T15:16:59.048Z,10.74
2023-02-18T15:19:29.476Z,10.84
2023-02-18T15:21:59.662Z,10.69
2023-02-18T15:24:34.280Z,10.68
2023-02-18T15:27:05.605Z,10.82
2023-02-18T15:29:39.264Z,10.93
2023-02-18T15:32:22.239Z,11.04
2023-02-18T15:34:52.070Z,11.17
2023-02-18T15:37:22.604Z,10.93
2023-02-18T15:39:50.668Z,10.91
2023-02-18T15:42:31.181Z,10.78
2023-02-18T15:45:25.814Z,10.76
2023-02-18T15:47:56.039Z,10.71
2023-02-18T15:50:27.901Z,10.77
2023-02-18T15:52:59.770Z,10.73
2023-02-18T15:55:36.962Z,10.70
2023-02-18T15:58:09.553Z,10.60
2023-02-18T16:00:47.239Z,10.49
2023-02-18T16:03:24.718Z,10.38
2023-02-18T16:06:12.845Z,10.40
2023-02-18T16:08:41.145Z,10.40
2023-02-18T16:11:13.604Z,10.36
2023-02-18T16:13:48.131Z,10.29
2023-02-18T16:16:32.218Z,10.23
2023-02-18T16:19:02.502Z,10.18
2023-02-18T16:21:33.067Z,10.19
2023-02-18T16:24:04.366Z,10.02
2023-02-18T16:26:37.380Z,10.01
2023-02-18T16:29:21.188Z,9.94
2023-02-18T16:31:48.729Z,9.94
2023-02-18T16:34:18.334Z,9.93
2023-02-18T16:37:12.609Z,9.75
2023-02-18T16:39:59.407Z,9.72
2023-02-18T16:42:26.863Z,9.65
2023-02-18T16:44:54.238Z,9.62
2023-02-18T16:47:21.672Z,9.55
2023-02-18T16:49:51.078Z,9.50
2023-02-18T16:52:19.464Z,9.44
2023-02-18T16:54:48.245Z,9.38
2023-02-18T16:57:15.602Z,9.40
2023-02-18T16:59:42.934Z,9.34
2023-02-18T17:02:18.579Z,9.28
2023-02-18T17:04:46.048Z,9.18
2023-02-18T17:07:13.473Z,9.14
2023-02-18T17:09:43.669Z,9.05
2023-02-18T17:12:12.345Z,9.00
2023-02-18T17:14:40.285Z,8.93
2023-02-18T17:17:13.949Z,8.84
2023-02-18T17:19:41.381Z,8.84
2023-02-18T17:22:13.149Z,8.79
2023-02-18T17:24:40.548Z,8.70
2023-02-18T17:27:09.937Z,8.65
2023-02-18T17:29:37.386Z,8.68
2023-02-18T17:32:07.691Z,8.65
2023-02-18T17:34:41.252Z,8.62
2023-02-18T17:37:15.146Z,8.61
2023-02-18T17:39:42.449Z,8.69
2023-02-18T17:42:11.770Z,8.72
2023-02-18T17:44:40.516Z,8.57
2023-02-18T17:47:07.812Z,8.56
2023-02-18T17:49:35.172Z,8.54
2023-02-18T17:52:02.492Z,8.50
2023-02-18T17:54:29.923Z,8.46
2023-02-18T17:56:57.285Z,8.32
2023-02-18T17:59:24.667Z,8.29
2023-02-18T18:01:51.978Z,8.34
2023-02-18T18:04:19.503Z,8.46
2023-02-18T18:06:47.732Z,8.46
2023-02-18T18:09:15.113Z,8.37
2023-02-18T18:11:42.609Z,8.29
2023-02-18T18:14:14.712Z,8.31
2023-02-18T18:16:41.926Z,8.36
2023-02-18T18:19:09.220Z,8.29
2023-02-18T18:21:36.986Z,8.20
2023-02-18T18:24:04.564Z,8.23
2023-02-18T18:26:31.927Z,8.24
2023-02-18T18:28:59.271Z,8.23
2023-02-18T18:31:26.637Z,8.13
2023-02-18T18:33:54.078Z,8.10
2023-02-18T18:36:24.088Z,8.06
2023-02-18T18:38:51.882Z,7.92
2023-02-18T18:41:21.764Z,7.99
2023-02-18T18:43:49.883Z,8.12
2023-02-18T18:46:18.153Z,8.10
2023-02-18T18:48:45.961Z,8.16
2023-02-18T18:51:21.427Z,8.10
2023-02-18T18:53:48.868Z,8.12
2023-02-18T18:56:16.115Z,7.97
2023-02-18T18:58:43.540Z,7.78
2023-02-18T19:01:17.175Z,7.64
2023-02-18T19:03:46.180Z,7.62
2023-02-18T19:06:14.842Z,7.75
2023-02-18T19:08:42.535Z,7.65
2023-02-18T19:11:12.030Z,7.57
2023-02-18T19:13:40.367Z,7.57
2023-02-18T19:16:07.910Z,7.53
2023-02-18T19:18:35.401Z,7.54
2023-02-18T19:21:04.692Z,7.49
2023-02-18T19:23:32.979Z,7.48
2023-02-18T19:26:01.271Z,7.46
2023-02-18T19:28:28.652Z,7.40
2023-02-18T19:30:56.046Z,7.41
2023-02-18T19:33:23.627Z,7.41
2023-02-18T19:35:50.922Z,7.36
2023-02-18T19:38:19.016Z,7.36
2023-02-18T19:40:47.000Z,7.35
2023-02-18T19:43:15.075Z,7.27
2023-02-18T19:45:44.806Z,7.29
2023-02-18T19:48:13.244Z,7.27
2023-02-18T19:50:42.012Z,7.32
2023-02-18T19:53:10.273Z,7.34
2023-02-18T19:55:37.587Z,7.33
2023-02-18T19:58:05.126Z,7.35
2023-02-18T20:00:32.460Z,7.35
2023-02-18T20:02:59.872Z,7.35
2023-02-18T20:05:27.248Z,7.31
2023-02-18T20:07:54.595Z,7.27
2023-02-18T20:10:22.132Z,7.22
2023-02-18T20:12:54.156Z,7.20
2023-02-18T20:15:22.177Z,7.20
2023-02-18T20:17:50.060Z,7.16
2023-02-18T20:20:19.155Z,7.16
2023-02-18T20:22:46.539Z,7.11
2023-02-18T20:25:13.973Z,7.14
2023-02-18T20:27:58.203Z,6.95
2023-02-18T20:30:27.656Z,6.85
2023-02-18T20:32:55.078Z,6.79
2023-02-18T20:35:22.601Z,6.78
2023-02-18T20:37:50.033Z,6.74
2023-02-18T20:40:17.707Z,6.75
2023-02-18T20:42:45.315Z,6.75
2023-02-18T20:45:12.585Z,6.74
2023-02-18T20:47:39.981Z,6.75
2023-02-18T20:50:07.639Z,6.65
2023-02-18T20:52:35.058Z,6.66
2023-02-18T20:55:02.433Z,6.60
2023-02-18T20:57:29.872Z,6.55
2023-02-18T20:59:58.398Z,6.57
2023-02-18T21:02:25.878Z,6.60
2023-02-18T21:04:55.779Z,6.64
2023-02-18T21:07:23.210Z,6.59
2023-02-18T21:09:50.456Z,6.63
2023-02-18T21:12:17.810Z,6.71
2023-02-18T21:14:45.294Z,6.68
2023-02-18T21:17:12.704Z,6.68
2023-02-18T21:19:40.694Z,6.66
2023-02-18T21:22:08.042Z,6.55
2023-02-18T21:24:35.414Z,6.53
2023-02-18T21:27:02.805Z,6.55
2023-02-18T21:29:30.275Z,6.54
2023-02-18T21:31:57.751Z,6.52
2023-02-18T21:34:26.044Z,6.46
2023-02-18T21:36:53.419Z,6.50
2023-02-18T21:39:23.608Z,6.48
2023-02-18T21:41:50.957Z,6.38
2023-02-18T21:44:18.293Z,6.40
2023-02-18T21:46:45.749Z,6.40
2023-02-18T21:49:13.328Z,6.45
2023-02-18T21:51:57.918Z,6.55
2023-02-18T21:54:37.004Z,6.53
2023-02-18T21:57:05.308Z,6.57
2023-02-18T21:59:36.189Z,6.55
2023-02-18T22:02:05.427Z,6.57
2023-02-18T22:04:34.595Z,6.47
2023-02-18T22:07:03.465Z,6.43
2023-02-18T22:09:31.114Z,6.43
2023-02-18T22:11:58.597Z,6.53
2023-02-18T22:14:25.919Z,6.60
2023-02-18T22:16:53.449Z,6.49
2023-02-18T22:19:20.861Z,6.55
2023-02-18T22:21:50.954Z,6.59
2023-02-18T22:24:19.365Z,6.56
2023-02-18T22:26:48.393Z,6.59
2023-02-18T22:29:19.404Z,6.62
2023-02-18T22:31:47.396Z,6.70
2023-02-18T22:34:15.610Z,6.75
2023-02-18T22:36:43.072Z,6.79
2023-02-18T22:39:11.379Z,6.80
2023-02-18T22:41:39.273Z,6.87
2023-02-18T22:44:09.050Z,6.95
2023-02-18T22:46:37.376Z,6.97
2023-02-18T22:49:06.625Z,6.96
2023-02-18T22:51:37.851Z,6.98
2023-02-18T22:54:10.657Z,7.05
2023-02-18T22:56:38.079Z,7.07
2023-02-18T22:59:05.989Z,7.03
2023-02-18T23:01:36.619Z,7.01
2023-02-18T23:04:12.337Z,6.99
2023-02-18T23:06:43.336Z,7.01
2023-02-18T23:09:17.226Z,7.02
2023-02-18T23:11:44.796Z,7.05
2023-02-18T23:14:18.303Z,6.98
2023-02-18T23:17:18.595Z,7.04
2023-02-18T23:19:54.772Z,7.09
2023-02-18T23:22:30.538Z,7.11
2023-02-18T23:24:59.218Z,7.07
2023-02-18T23:27:27.225Z,7.10
2023-02-18T23:29:56.410Z,7.15
2023-02-18T23:32:24.946Z,7.16
2023-02-18T23:34:52.370Z,7.17
2023-02-18T23:37:40.621Z,7.20
2023-02-18T23:40:09.005Z,7.22
2023-02-18T23:42:36.379Z,7.26
2023-02-18T23:45:03.851Z,7.31
2023-02-18T23:47:32.033Z,7.32
2023-02-18T23:49:59.300Z,7.34
2023-02-18T23:52:26.691Z,7.34
2023-02-18T23:54:54.438Z,7.36
2023-02-18T23:57:21.809Z,7.35
2023-02-18T23:59:49.117Z,7.37
